Flight Track Log - Related Links

Times and Time Zones

All times are in EDT time to prevent confusion due to time zone crossing. See the UAL33 flight status page for this flight to view local times or setup timezone preferences in your user account.

Time Position Orientation Groundspeed Altitude Reporting Facility
EDT Latitude Longitude Course Direction KTS MPH feet Rate Location/Type
Sun 09:36:48 PM 41.9790 -87.9120 230° Southwest 12 14  Level FlightAware ADS-B
Sun 09:37:16 PM 41.9790 -87.9130 270° West 19 22 40 Level FlightAware ADS-B
Sun 09:37:39 PM 41.9780 -87.9130 180° South 26 30 42 Level FlightAware ADS-B
Sun 09:38:06 PM 41.9760 -87.9140 200° South 26 30 43 Level FlightAware ADS-B
Sun 09:38:33 PM 41.9770 -87.9140 360° North 29 33 44 Level FlightAware ADS-B
Sun 09:38:53 PM 41.9770 -87.9150 270° West 34 39 46 Level FlightAware ADS-B
Sun 09:39:22 PM 41.9790 -87.9160 340° North 17 20 47 Level FlightAware ADS-B
Sun 09:39:50 PM 41.9800 -87.9180 304° West 27 31 49 Level FlightAware ADS-B
Sun 09:40:02 PM 41.9810 -87.9180 360° North 28 32 51 Level FlightAware ADS-B
Sun 09:40:18 PM 41.9820 -87.9180 360° North 25 29 52 Level FlightAware ADS-B
Sun 09:40:28 PM 41.9820 -87.9190 270° West 25 29 53 Level FlightAware ADS-B
Sun 09:40:57 PM 41.9820 -87.9210 270° West 21 24 54 Level FlightAware ADS-B
Sun 09:41:30 PM 41.9830 -87.9200 37° Northeast 25 29 56 Level FlightAware ADS-B
Sun 09:41:56 PM 41.9830 -87.9190 90° East 59 Level FlightAware ADS-B
Sun 09:44:00 PM 41.8058 -88.0500 200° South  Level Estimated
Sun 09:45:00 PM 41.7200 -88.1131 187° South  Level Estimated
Sun 09:46:00 PM 41.6341 -88.1760 189° South  Level Estimated
Sun 09:47:00 PM 41.5483 -88.1130 151° Southeast  Level FlightAware Approximate
Sun 09:48:00 PM 41.4628 -88.1765 197° South  Level Estimated
Sun 09:49:00 PM 41.3772 -88.2399 189° South  Level Estimated
Sun 09:51:00 PM 41.8029 -88.0511 200° South  Level Estimated
Sun 09:51:14 PM 41.9840 -87.9150 200° South 62 71  Level FlightAware ADS-B
Sun 09:51:40 PM 41.9840 -87.8950 90° East 162 186 600 2,100 Climbing FlightAware ADS-B
Sun 09:52:14 PM 41.9760 -87.8640 109° East 175 201 2,100 2,609 Climbing FlightAware ADS-B
Sun 09:52:26 PM 41.9670 -87.8590 158° South 193 222 2,600 2,850 Climbing FlightAware ADS-B
Sun 09:52:54 PM 41.9390 -87.8580 178° South 231 266 4,000 3,273 Climbing FlightAware ADS-B
Sun 09:53:21 PM 41.9100 -87.8570 179° South 249 287 5,600 3,529 Climbing FlightAware ADS-B
Sun 09:53:45 PM 41.8800 -87.8550 177° South 267 307 7,000 3,682 Climbing FlightAware ADS-B
Sun 09:54:05 PM 41.8560 -87.8610 191° South 272 313 8,300 3,625 Climbing FlightAware ADS-B
Sun 09:54:33 PM 41.8190 -87.8760 197° South 292 336 9,900 3,686 Climbing FlightAware ADS-B
Sun 09:55:15 PM 41.7640 -87.8960 195° South 306 352 12,600 3,366 Climbing FlightAware ADS-B
Sun 09:55:55 PM 41.7080 -87.9170 196° South 340 391 14,500 2,929 Climbing FlightAware ADS-B
Sun 09:56:39 PM 41.6350 -87.9450 196° South 376 433 16,700 3,286 Climbing FlightAware ADS-B
Sun 09:57:19 PM 41.5670 -87.9700 195° South 388 447 19,100 3,214 Climbing FlightAware ADS-B
Sun 09:58:03 PM 41.4910 -87.9980 195° South 408 470 21,200 3,000 Climbing FlightAware ADS-B
Sun 09:58:41 PM 41.4170 -88.0260 196° South 421 484 23,200 2,857 Climbing FlightAware ADS-B
Sun 09:59:27 PM 41.3300 -88.0560 195° South 436 502 25,200 2,791 Climbing FlightAware ADS-B
Sun 10:00:07 PM 41.2530 -88.0820 194° South 440 506 27,200 2,643 Climbing FlightAware ADS-B
Sun 10:00:51 PM 41.1610 -88.1090 192° South 456 525 28,900 2,357 Climbing FlightAware ADS-B
Sun 10:01:31 PM 41.0770 -88.1330 192° South 461 531 30,500 2,195 Climbing FlightAware ADS-B
Sun 10:02:13 PM 40.9890 -88.1630 194° South 470 541 31,900 1,857 Climbing FlightAware ADS-B
Sun 10:02:55 PM 40.9000 -88.1930 194° South 481 554 33,100 1,744 Climbing FlightAware ADS-B
Sun 10:03:39 PM 40.8050 -88.2250 194° South 489 563 34,400 1,643 Climbing FlightAware ADS-B
Sun 10:04:19 PM 40.7150 -88.2540 194° South 496 571 35,400 1,857 Climbing FlightAware ADS-B
Sun 10:05:03 PM 40.6180 -88.2860 194° South 489 563 37,000 2,143 Climbing FlightAware ADS-B
Sun 10:05:43 PM 40.5310 -88.3150 194° South 481 554 38,400 1,829 Climbing FlightAware ADS-B
Sun 10:06:25 PM 40.4400 -88.3440 194° South 476 548 39,500 1,116 Climbing FlightAware ADS-B
Sun 10:07:09 PM 40.3480 -88.3740 194° South 474 545 40,000 357 Climbing FlightAware ADS-B
Sun 10:07:49 PM 40.2620 -88.4020 194° South 472 543 40,000  Level FlightAware ADS-B
Sun 10:08:33 PM 40.1720 -88.4310 194° South 471 542 40,000  Level FlightAware ADS-B
Sun 10:09:11 PM 40.0910 -88.4580 194° South 473 544 40,000  Level FlightAware ADS-B
Sun 10:09:55 PM 39.9970 -88.4880 194° South 473 544 40,000  Level FlightAware ADS-B
Sun 10:10:35 PM 39.9100 -88.5160 194° South 471 542 40,000  Level FlightAware ADS-B
Sun 10:11:19 PM 39.8160 -88.5460 194° South 473 544 40,000  Level FlightAware ADS-B
Sun 10:12:03 PM 39.7230 -88.5760 194° South 477 549 40,000  Level FlightAware ADS-B
Sun 10:12:46 PM 39.6290 -88.6060 194° South 479 551 40,000  Level FlightAware ADS-B
Sun 10:13:21 PM 39.5540 -88.6290 193° South 481 554 40,000  Level FlightAware ADS-B
Sun 10:14:01 PM 39.4680 -88.6570 194° South 483 556 40,000  Level FlightAware ADS-B
Sun 10:14:41 PM 39.3840 -88.6830 193° South 482 555 40,000  Level FlightAware ADS-B
Sun 10:15:07 PM 39.3240 -88.7020 194° South 483 556 40,000  Level FlightAware ADS-B
Sun 10:16:19 PM 39.1690 -88.7510 194° South 479 551 40,000  Level FlightAware ADS-B
Sun 10:17:04 PM 39.0710 -88.7820 194° South 481 554 40,000  Level FlightAware ADS-B
Sun 10:17:41 PM 38.9940 -88.8060 194° South 481 554 40,000  Level FlightAware ADS-B
Sun 10:18:25 PM 38.8950 -88.8370 194° South 482 555 40,000  Level FlightAware ADS-B
Sun 10:19:05 PM 38.8140 -88.8620 194° South 481 554 40,000  Level FlightAware ADS-B
Sun 10:19:52 PM 38.7070 -88.8950 194° South 478 550 40,000  Level FlightAware ADS-B
Sun 10:20:32 PM 38.6210 -88.9220 194° South 478 550 40,000  Level FlightAware ADS-B
Sun 10:21:15 PM 38.5290 -88.9510 194° South 478 550 40,000  Level FlightAware ADS-B
Sun 10:21:49 PM 38.4550 -88.9730 193° South 477 549 40,000  Level FlightAware ADS-B
Sun 10:22:39 PM 38.3480 -89.0060 194° South 475 547 40,000  Level FlightAware ADS-B
Sun 10:23:20 PM 38.2620 -89.0320 193° South 473 544 40,000  Level FlightAware ADS-B
Sun 10:24:03 PM 38.1700 -89.0610 194° South 471 542 40,000  Level FlightAware ADS-B
Sun 10:24:42 PM 38.0890 -89.0850 193° South 471 542 40,000  Level FlightAware ADS-B
Sun 10:25:27 PM 37.9960 -89.1260 199° South 471 542 40,000  Level FlightAware ADS-B
Sun 10:26:03 PM 37.9230 -89.1670 204° Southwest 474 545 40,000  Level FlightAware ADS-B
Sun 10:26:53 PM 37.8230 -89.2230 204° Southwest 475 547 40,000  Level FlightAware ADS-B
Sun 10:27:33 PM 37.7430 -89.2670 204° Southwest 476 548 40,000  Level FlightAware ADS-B
Sun 10:28:15 PM 37.6590 -89.3140 204° Southwest 475 547 40,000  Level FlightAware ADS-B
Sun 10:29:06 PM 37.5660 -89.3650 203° Southwest 474 545 40,000  Level FlightAware ADS-B
Sun 10:29:56 PM 37.4810 -89.4100 203° Southwest 474 545 40,000  Level FlightAware ADS-B
Sun 10:30:30 PM 37.4220 -89.4420 203° Southwest 474 545 40,000  Level FlightAware ADS-B
Sun 10:31:18 PM 37.3400 -89.4860 203° Southwest 474 545 40,000  Level FlightAware ADS-B
Sun 10:31:54 PM 37.2780 -89.5190 203° Southwest 474 545 40,000  Level FlightAware ADS-B
Sun 10:32:42 PM 37.1960 -89.5620 203° Southwest 474 545 40,000  Level FlightAware ADS-B
Sun 10:33:19 PM 37.1320 -89.5960 203° Southwest 474 545 40,000  Level FlightAware ADS-B
Sun 10:34:05 PM 36.9570 -89.7000 205° Southwest 469 540 40,000  Level FlightAware ADS-B
Sun 10:34:45 PM 36.8760 -89.7430 203° Southwest 471 542 40,000  Level FlightAware ADS-B
Sun 10:35:23 PM 36.8010 -89.7820 203° Southwest 471 542 40,000  Level FlightAware ADS-B
Sun 10:35:56 PM 36.7350 -89.8170 203° Southwest 471 542 40,000  Level FlightAware ADS-B
Sun 10:36:39 PM 36.6510 -89.8610 203° Southwest 471 542 40,000  Level FlightAware ADS-B
Sun 10:37:19 PM 36.5680 -89.9050 203° Southwest 471 542 40,000  Level FlightAware ADS-B
Sun 10:38:03 PM 36.4800 -89.9510 203° Southwest 470 541 40,000  Level FlightAware ADS-B
Sun 10:38:44 PM 36.3980 -89.9940 203° Southwest 467 537 40,000  Level FlightAware ADS-B
Sun 10:39:28 PM 36.3100 -90.0400 203° Southwest 468 539 40,000  Level FlightAware ADS-B
Sun 10:40:10 PM 36.2340 -90.0780 202° Southwest 468 539 40,000  Level FlightAware ADS-B
Sun 10:40:46 PM 36.1730 -90.1090 202° Southwest 468 539 40,000  Level FlightAware ADS-B
Sun 10:41:34 PM 36.0910 -90.1500 202° Southwest 468 539 40,000  Level FlightAware ADS-B
Sun 10:42:10 PM 36.0290 -90.1810 202° Southwest 468 539 40,000  Level FlightAware ADS-B
Sun 10:42:58 PM 35.9470 -90.2210 202° Southwest 468 539 40,000  Level FlightAware ADS-B
Sun 10:43:34 PM 35.8860 -90.2520 202° Southwest 468 539 40,000  Level FlightAware ADS-B
Sun 10:44:22 PM 35.8040 -90.2930 202° Southwest 468 539 40,000  Level FlightAware ADS-B
Sun 10:44:58 PM 35.7430 -90.3240 202° Southwest 468 539 40,000  Level FlightAware ADS-B
Sun 10:45:47 PM 35.6590 -90.3650 202° Southwest 468 539 40,000  Level FlightAware ADS-B
Sun 10:46:23 PM 35.5980 -90.3960 202° Southwest 468 539 40,000  Level FlightAware ADS-B
Sun 10:47:11 PM 35.5160 -90.4360 202° Southwest 468 539 40,000  Level FlightAware ADS-B
Sun 10:47:47 PM 35.4540 -90.4670 202° Southwest 468 539 40,000  Level FlightAware ADS-B
Sun 10:48:35 PM 35.3720 -90.5070 202° Southwest 468 539 40,000  Level FlightAware ADS-B
Sun 10:49:11 PM 35.3110 -90.5380 203° Southwest 468 539 40,000  Level FlightAware ADS-B
Sun 10:49:56 PM 35.0653 -90.6817 203° Southwest 474 545 40,000  Level Memphis Center
Sun 10:50:56 PM 34.9442 -90.7422 202° Southwest 474 545 40,000  Level Memphis Center
Sun 10:51:56 PM 34.8125 -90.8075 202° Southwest 474 545 40,000  Level Memphis Center
Sun 10:52:56 PM 34.6892 -90.8697 203° Southwest 474 545 40,000  Level Memphis Center
Sun 10:53:56 PM 34.5700 -90.9272 202° Southwest 474 545 40,000  Level Memphis Center
Sun 10:54:56 PM 34.4467 -90.9894 203° Southwest 474 545 40,000  Level Memphis Center
Sun 10:55:56 PM 34.3231 -91.0489 202° Southwest 474 545 40,000  Level Memphis Center
Sun 10:56:56 PM 34.2039 -91.1081 202° Southwest 474 545 40,000  Level Memphis Center
Sun 10:57:56 PM 34.0825 -91.1672 202° Southwest 474 545 40,000  Level Memphis Center
Sun 10:58:56 PM 33.9589 -91.2236 201° Southwest 474 545 40,000  Level Memphis Center
Sun 10:59:56 PM 33.8439 -91.2825 203° Southwest 468 539 40,000  Level Memphis Center
Sun 11:00:56 PM 33.7222 -91.3411 202° Southwest 468 539 40,000  Level Memphis Center
Sun 11:01:56 PM 33.6008 -91.3997 202° Southwest 468 539 40,000  Level Memphis Center
Sun 11:03:46 PM 33.3933 -91.4975 201° Southwest 438 504 40,000  Level Fort Worth Center
Sun 11:04:46 PM 33.2728 -91.5553 202° Southwest 459 528 40,000  Level Fort Worth Center
Sun 11:05:46 PM 33.1361 -91.6214 202° Southwest 474 545 40,000  Level Fort Worth Center
Sun 11:12:59 PM 32.2534 -92.0556 202° Southwest 470 541 40,000  Level FlightAware ADS-B
Sun 11:13:06 PM 32.2429 -92.0663 221° Southwest 468 539 40,000  Level FlightAware ADS-B
Sun 11:13:39 PM 32.1925 -92.1262 225° Southwest 465 535 40,000  Level FlightAware ADS-B
Sun 11:14:11 PM 32.1442 -92.1839 225° Southwest 465 535 40,000 -338 Level FlightAware ADS-B
Sun 11:14:50 PM 32.0845 -92.2552 225° Southwest 464 534 39,600 -986 Descending FlightAware ADS-B
Sun 11:15:24 PM 32.0328 -92.3169 225° Southwest 465 535 38,800 -1,385 Descending FlightAware ADS-B
Sun 11:15:55 PM 31.9866 -92.3722 225° Southwest 465 535 38,100 -1,355 Descending FlightAware ADS-B
Sun 11:16:26 PM 31.9402 -92.4277 225° Southwest 464 534 37,400 -729 Descending FlightAware ADS-B
Sun 11:17:42 PM 31.8250 -92.5644 225° Southwest 471 542 36,800 -315 Descending FlightAware ADS-B
Sun 11:20:53 PM 31.5355 -92.9053 225° Southwest 465 535 36,000 -216 Descending FlightAware ADS-B
Sun 11:21:24 PM 31.4873 -92.9583 223° Southwest 468 539 36,000  Level FlightAware ADS-B
Sun 11:21:54 PM 31.4395 -93.0109 223° Southwest 470 541 36,000  Level FlightAware ADS-B
Sun 11:22:37 PM 31.3710 -93.0864 223° Southwest 470 541 36,000 -71 Level FlightAware ADS-B
Sun 11:23:18 PM 31.3075 -93.1566 223° Southwest 468 539 35,900 -507 Descending FlightAware ADS-B
Sun 11:23:48 PM 31.2605 -93.2085 223° Southwest 461 531 35,400 -1,200 Descending FlightAware ADS-B
Sun 11:24:18 PM 31.2137 -93.2602 223° Southwest 462 532 34,700 -1,475 Descending FlightAware ADS-B
Sun 11:24:49 PM 31.1665 -93.3123 223° Southwest 463 533 33,900 -1,377 Descending FlightAware ADS-B
Sun 11:25:19 PM 31.1194 -93.3640 223° Southwest 462 532 33,300 -1,500 Descending FlightAware ADS-B
Sun 11:25:49 PM 31.0721 -93.4160 223° Southwest 458 527 32,400 -1,869 Descending FlightAware ADS-B
Sun 11:26:20 PM 31.0258 -93.4669 223° Southwest 453 521 31,400 -2,066 Descending FlightAware ADS-B
Sun 11:26:50 PM 30.9793 -93.5177 223° Southwest 447 514 30,300 -2,066 Descending FlightAware ADS-B
Sun 11:27:21 PM 30.9339 -93.5675 223° Southwest 441 507 29,300 -1,967 Descending FlightAware ADS-B
Sun 11:27:51 PM 30.8894 -93.6157 223° Southwest 436 502 28,300 -2,000 Descending FlightAware ADS-B
Sun 11:28:21 PM 30.8451 -93.6637 223° Southwest 430 495 27,300 -2,000 Descending FlightAware ADS-B
Sun 11:28:54 PM 30.7973 -93.7157 223° Southwest 424 488 26,200 -2,000 Descending FlightAware ADS-B
Sun 11:29:24 PM 30.7547 -93.7623 223° Southwest 417 480 25,200 -2,000 Descending FlightAware ADS-B
Sun 11:29:54 PM 30.7128 -93.8079 223° Southwest 410 472 24,200 -1,900 Descending FlightAware ADS-B
Sun 11:30:24 PM 30.6712 -93.8530 223° Southwest 404 465 23,300 -1,869 Descending FlightAware ADS-B
Sun 11:30:55 PM 30.6300 -93.8976 223° Southwest 398 458 22,300 -1,869 Descending FlightAware ADS-B
Sun 11:31:25 PM 30.5898 -93.9411 223° Southwest 393 452 21,400 -1,900 Descending FlightAware ADS-B
Sun 11:31:55 PM 30.5495 -93.9844 223° Southwest 388 447 20,400 -2,038 Descending FlightAware ADS-B
Sun 11:32:18 PM 30.5207 -94.0193 228° Southwest 383 441 19,600 -2,057 Descending FlightAware ADS-B
Sun 11:32:30 PM 30.5083 -94.0382 233° Southwest 381 438 19,200 -1,622 Descending FlightAware ADS-B
Sun 11:32:55 PM 30.4846 -94.0811 237° Southwest 373 429 18,600 -1,636 Descending FlightAware ADS-B
Sun 11:33:25 PM 30.4570 -94.1312 237° Southwest 368 423 17,700 -2,344 Descending FlightAware ADS-B
Sun 11:35:26 PM 30.3503 -94.3254 237° Southwest 352 405 12,700 -2,305 Descending FlightAware ADS-B
Sun 11:35:56 PM 30.3240 -94.3729 237° Southwest 341 392 11,900 -787 Descending FlightAware ADS-B
Sun 11:36:27 PM 30.2995 -94.4175 238° Southwest 320 368 11,900 -393 Level FlightAware ADS-B
Sun 11:36:57 PM 30.2752 -94.4615 237° Southwest 320 368 11,500 -1,200 Descending FlightAware ADS-B
Sun 11:37:57 PM 30.2285 -94.5460 237° Southwest 306 352 10,100 -950 Descending FlightAware ADS-B
Sun 11:38:57 PM 30.1862 -94.6224 237° Southwest 268 308 9,600 -800 Descending FlightAware ADS-B
Sun 11:39:42 PM 30.1558 -94.6772 237° Southwest 267 307 8,700 -1,286 Descending FlightAware ADS-B
Sun 11:40:07 PM 30.1390 -94.7072 237° Southwest 269 310 8,100 -1,326 Descending FlightAware ADS-B
Sun 11:41:08 PM 30.0982 -94.7806 237° Southwest 264 304 6,800 -1,389 Descending FlightAware ADS-B
Sun 11:41:55 PM 30.0680 -94.8347 237° Southwest 260 299 5,600 -1,452 Descending FlightAware ADS-B
Sun 11:42:10 PM 30.0576 -94.8533 237° Southwest 264 304 5,300 -1,161 Descending FlightAware ADS-B
Sun 11:42:26 PM 30.0474 -94.8716 237° Southwest 265 305 5,000 -1,013 Descending FlightAware ADS-B
Sun 11:43:27 PM 30.0077 -94.9428 237° Southwest 254 292 4,000 -960 Descending FlightAware ADS-B
Sun 11:43:41 PM 29.9985 -94.9593 237° Southwest 243 280 3,800 -563 Descending FlightAware ADS-B
Sun 11:43:59 PM 29.9881 -94.9780 237° Southwest 232 267 3,700 -429 Descending FlightAware ADS-B
Sun 11:44:09 PM 29.9836 -94.9886 246° West 229 264 3,600 -462 Descending FlightAware ADS-B
Sun 11:44:12 PM 29.9822 -94.9929 249° West 228 262 3,600  Level FlightAware ADS-B
Sun 11:44:16 PM 29.9811 -94.9969 252° West 227 261 3,600 -857 Level FlightAware ADS-B
Sun 11:44:19 PM 29.9801 -95.0010 254° West 225 259 3,500 -500 Descending FlightAware ADS-B
Sun 11:44:28 PM 29.9785 -95.0106 260° West 223 257 3,500 -231 Level FlightAware ADS-B
Sun 11:44:45 PM 29.9775 -95.0300 268° West 213 245 3,400 -414 Descending FlightAware ADS-B
Sun 11:44:57 PM 29.9775 -95.0443 270° West 205 236 3,300 -462 Descending FlightAware ADS-B
Sun 11:45:24 PM 29.9776 -95.0719 270° West 191 220 3,100 -333 Descending FlightAware ADS-B
Sun 11:46:09 PM 29.9776 -95.1178 270° West 188 216 2,900 -480 Descending FlightAware ADS-B
Sun 11:46:39 PM 29.9776 -95.1480 270° West 188 216 2,500 -918 Descending FlightAware ADS-B
Sun 11:47:34 PM 29.9776 -95.2019 270° West 182 209 1,600 -960 Descending FlightAware ADS-B
Sun 11:47:54 PM 29.9777 -95.2195 270° West 161 185 1,300 -857 Descending FlightAware ADS-B
Sun 11:48:09 PM 29.9776 -95.2320 269° West 148 170 1,100 -800 Descending FlightAware ADS-B
Sun 11:48:24 PM 29.9776 -95.2438 270° West 142 163 900 -720 Descending FlightAware ADS-B
Sun 11:48:34 PM 29.9777 -95.2512 271° West 141 162 800 -667 Descending FlightAware ADS-B
Sun 11:48:42 PM 29.9778 -95.2576 271° West 141 162 700 -667 Descending FlightAware ADS-B
Sun 11:48:52 PM 29.9778 -95.2650 270° West 140 161 600 -600 Descending FlightAware ADS-B
Sun 11:49:02 PM 29.9776 -95.2725 268° West 140 161 500 -667 Descending FlightAware ADS-B
Sun 11:49:10 PM 29.9776 -95.2783 270° West 140 161 400 -750 Descending FlightAware ADS-B
Sun 11:49:26 PM 29.9776 -95.2903 270° West 141 162 200 -750 Descending FlightAware ADS-B
Sun 11:49:41 PM 29.9776 -95.3017 270° West 140 161 -800 Descending FlightAware ADS-B

Login

Don't have an account? Register now (free) for customized features, flight alerts, and more!